sensor_id;sensor_type;location;lat;lon;timestamp;pressure;altitude;pressure_sealevel;temperature;humidity
51829;BME280;37881;48.024;8.774;2023-07-20T00:00:46;93866.19;;;18.27;92.88
51829;BME280;37881;48.024;8.774;2023-07-20T00:03:14;93866.31;;;18.33;92.55
51829;BME280;37881;48.024;8.774;2023-07-20T00:05:45;93859.38;;;18.38;92.36
51829;BME280;37881;48.024;8.774;2023-07-20T00:08:12;93862.28;;;18.43;91.96
51829;BME280;37881;48.024;8.774;2023-07-20T00:10:40;93852.72;;;18.44;91.69
51829;BME280;37881;48.024;8.774;2023-07-20T00:13:09;93861.91;;;18.08;93.81
51829;BME280;37881;48.024;8.774;2023-07-20T00:15:36;93856.50;;;18.04;94.20
51829;BME280;37881;48.024;8.774;2023-07-20T00:18:04;93867.47;;;17.99;94.40
51829;BME280;37881;48.024;8.774;2023-07-20T00:20:31;93875.69;;;17.93;95.57
51829;BME280;37881;48.024;8.774;2023-07-20T00:22:58;93865.59;;;18.05;94.61
51829;BME280;37881;48.024;8.774;2023-07-20T00:25:25;93869.19;;;17.96;95.17
51829;BME280;37881;48.024;8.774;2023-07-20T00:27:52;93874.56;;;17.72;96.68
51829;BME280;37881;48.024;8.774;2023-07-20T00:30:19;93874.88;;;18.02;95.33
51829;BME280;37881;48.024;8.774;2023-07-20T00:32:46;93879.50;;;18.14;94.30
51829;BME280;37881;48.024;8.774;2023-07-20T00:35:13;93874.53;;;18.18;94.18
51829;BME280;37881;48.024;8.774;2023-07-20T00:37:40;93881.47;;;18.23;93.69
51829;BME280;37881;48.024;8.774;2023-07-20T00:40:07;93881.00;;;18.24;93.43
51829;BME280;37881;48.024;8.774;2023-07-20T00:42:34;93876.72;;;18.14;94.45
51829;BME280;37881;48.024;8.774;2023-07-20T00:45:01;93874.84;;;18.11;94.73
51829;BME280;37881;48.024;8.774;2023-07-20T00:47:28;93871.94;;;18.05;95.23
51829;BME280;37881;48.024;8.774;2023-07-20T00:49:55;93874.72;;;18.05;95.85
51829;BME280;37881;48.024;8.774;2023-07-20T00:52:23;93870.84;;;18.03;96.45
51829;BME280;37881;48.024;8.774;2023-07-20T00:54:52;93873.81;;;17.99;97.18
51829;BME280;37881;48.024;8.774;2023-07-20T00:57:19;93882.44;;;17.92;97.50
51829;BME280;37881;48.024;8.774;2023-07-20T00:59:45;93875.97;;;17.86;97.50
51829;BME280;37881;48.024;8.774;2023-07-20T01:02:12;93870.38;;;17.76;98.49
51829;BME280;37881;48.024;8.774;2023-07-20T01:04:39;93877.03;;;17.70;99.52
51829;BME280;37881;48.024;8.774;2023-07-20T01:07:41;93869.78;;;17.63;100.00
51829;BME280;37881;48.024;8.774;2023-07-20T01:10:05;93874.56;;;17.63;100.00
51829;BME280;37881;48.024;8.774;2023-07-20T01:12:46;93865.59;;;17.58;98.89
51829;BME280;37881;48.024;8.774;2023-07-20T01:15:13;93865.00;;;17.54;98.81
51829;BME280;37881;48.024;8.774;2023-07-20T01:17:40;93872.38;;;17.48;100.00
51829;BME280;37881;48.024;8.774;2023-07-20T01:20:09;93859.31;;;17.49;99.69
51829;BME280;37881;48.024;8.774;2023-07-20T01:33:52;93860.19;;;17.18;100.00
51829;BME280;37881;48.024;8.774;2023-07-20T01:36:22;93858.81;;;17.13;100.00
51829;BME280;37881;48.024;8.774;2023-07-20T01:38:51;93852.59;;;16.91;100.00
51829;BME280;37881;48.024;8.774;2023-07-20T01:41:19;93856.13;;;16.82;100.00
51829;BME280;37881;48.024;8.774;2023-07-20T01:43:46;93854.34;;;16.66;100.00
51829;BME280;37881;48.024;8.774;2023-07-20T01:46:12;93859.09;;;16.56;100.00
51829;BME280;37881;48.024;8.774;2023-07-20T01:48:39;93856.38;;;16.34;100.00
51829;BME280;37881;48.024;8.774;2023-07-20T01:51:06;93856.38;;;16.34;100.00
51829;BME280;37881;48.024;8.774;2023-07-20T01:53:33;93853.09;;;16.27;100.00
51829;BME280;37881;48.024;8.774;2023-07-20T01:56:00;93865.22;;;16.20;100.00
51829;BME280;37881;48.024;8.774;2023-07-20T01:58:27;93850.88;;;16.12;100.00
51829;BME280;37881;48.024;8.774;2023-07-20T02:00:54;93860.78;;;16.01;100.00
51829;BME280;37881;48.024;8.774;2023-07-20T02:03:20;93863.34;;;15.86;100.00
51829;BME280;37881;48.024;8.774;2023-07-20T02:05:48;93867.09;;;15.79;100.00
51829;BME280;37881;48.024;8.774;2023-07-20T02:08:15;93870.66;;;15.80;100.00
51829;BME280;37881;48.024;8.774;2023-07-20T02:10:45;93860.94;;;15.75;100.00
51829;BME280;37881;48.024;8.774;2023-07-20T02:13:12;93858.84;;;15.66;100.00
51829;BME280;37881;48.024;8.774;2023-07-20T02:15:38;93855.25;;;15.56;100.00
51829;BME280;37881;48.024;8.774;2023-07-20T02:18:05;93850.84;;;15.46;100.00
51829;BME280;37881;48.024;8.774;2023-07-20T02:20:32;93859.28;;;15.43;100.00
51829;BME280;37881;48.024;8.774;2023-07-20T02:22:59;93853.34;;;15.31;100.00
51829;BME280;37881;48.024;8.774;2023-07-20T02:25:26;93856.34;;;15.24;100.00
51829;BME280;37881;48.024;8.774;2023-07-20T02:27:52;93851.84;;;15.17;100.00
51829;BME280;37881;48.024;8.774;2023-07-20T02:30:19;93855.72;;;15.20;100.00
51829;BME280;37881;48.024;8.774;2023-07-20T02:32:46;93852.63;;;15.18;100.00
51829;BME280;37881;48.024;8.774;2023-07-20T02:35:15;93854.41;;;15.12;100.00
51829;BME280;37881;48.024;8.774;2023-07-20T02:37:43;93857.59;;;15.10;100.00
51829;BME280;37881;48.024;8.774;2023-07-20T02:40:10;93854.72;;;15.14;100.00
51829;BME280;37881;48.024;8.774;2023-07-20T02:42:37;93848.75;;;15.15;100.00
51829;BME280;37881;48.024;8.774;2023-07-20T02:45:05;93857.66;;;14.97;100.00
51829;BME280;37881;48.024;8.774;2023-07-20T02:47:32;93857.75;;;14.94;100.00
51829;BME280;37881;48.024;8.774;2023-07-20T02:49:58;93857.47;;;14.79;100.00
51829;BME280;37881;48.024;8.774;2023-07-20T02:52:25;93859.91;;;14.64;100.00
51829;BME280;37881;48.024;8.774;2023-07-20T02:54:52;93859.25;;;14.60;100.00
51829;BME280;37881;48.024;8.774;2023-07-20T02:57:19;93864.31;;;14.62;100.00
51829;BME280;37881;48.024;8.774;2023-07-20T02:59:45;93869.28;;;14.67;100.00
51829;BME280;37881;48.024;8.774;2023-07-20T03:02:13;93863.66;;;14.70;100.00
51829;BME280;37881;48.024;8.774;2023-07-20T03:04:39;93862.91;;;14.57;100.00
51829;BME280;37881;48.024;8.774;2023-07-20T03:07:06;93866.50;;;14.54;100.00
51829;BME280;37881;48.024;8.774;2023-07-20T03:09:34;93873.69;;;14.51;100.00
51829;BME280;37881;48.024;8.774;2023-07-20T03:12:01;93868.06;;;14.55;100.00
51829;BME280;37881;48.024;8.774;2023-07-20T03:14:28;93868.03;;;14.42;100.00
51829;BME280;37881;48.024;8.774;2023-07-20T03:16:54;93863.66;;;14.45;100.00
51829;BME280;37881;48.024;8.774;2023-07-20T03:19:21;93869.38;;;14.37;100.00
51829;BME280;37881;48.024;8.774;2023-07-20T03:21:48;93867.72;;;14.40;100.00
51829;BME280;37881;48.024;8.774;2023-07-20T03:24:15;93870.69;;;14.46;100.00
51829;BME280;37881;48.024;8.774;2023-07-20T03:26:42;93868.28;;;14.48;100.00
51829;BME280;37881;48.024;8.774;2023-07-20T03:29:09;93876.13;;;14.49;100.00
51829;BME280;37881;48.024;8.774;2023-07-20T03:31:35;93878.56;;;14.47;100.00
51829;BME280;37881;48.024;8.774;2023-07-20T03:34:02;93872.69;;;14.45;100.00
51829;BME280;37881;48.024;8.774;2023-07-20T03:36:29;93875.00;;;14.34;100.00
51829;BME280;37881;48.024;8.774;2023-07-20T03:38:55;93875.22;;;14.27;100.00
51829;BME280;37881;48.024;8.774;2023-07-20T03:41:22;93879.00;;;14.33;100.00
51829;BME280;37881;48.024;8.774;2023-07-20T03:43:49;93876.22;;;14.33;100.00
51829;BME280;37881;48.024;8.774;2023-07-20T03:46:15;93878.75;;;14.27;100.00
51829;BME280;37881;48.024;8.774;2023-07-20T03:48:42;93873.25;;;14.27;100.00
51829;BME280;37881;48.024;8.774;2023-07-20T03:51:09;93874.34;;;14.30;100.00
51829;BME280;37881;48.024;8.774;2023-07-20T03:53:36;93871.91;;;14.32;100.00
51829;BME280;37881;48.024;8.774;2023-07-20T03:56:03;93875.66;;;14.38;100.00
51829;BME280;37881;48.024;8.774;2023-07-20T03:58:30;93873.13;;;14.44;100.00
51829;BME280;37881;48.024;8.774;2023-07-20T04:00:58;93862.31;;;14.49;100.00
51829;BME280;37881;48.024;8.774;2023-07-20T04:03:25;93864.97;;;14.53;100.00
51829;BME280;37881;48.024;8.774;2023-07-20T04:05:54;93871.69;;;14.52;100.00
51829;BME280;37881;48.024;8.774;2023-07-20T04:08:24;93869.63;;;14.56;100.00
51829;BME280;37881;48.024;8.774;2023-07-20T04:10:51;93864.63;;;14.51;100.00
51829;BME280;37881;48.024;8.774;2023-07-20T04:13:18;93872.38;;;14.43;100.00
51829;BME280;37881;48.024;8.774;2023-07-20T04:15:45;93876.34;;;14.29;100.00
51829;BME280;37881;48.024;8.774;2023-07-20T04:18:12;93879.28;;;14.09;100.00
51829;BME280;37881;48.024;8.774;2023-07-20T04:20:39;93882.03;;;14.09;100.00
51829;BME280;37881;48.024;8.774;2023-07-20T04:23:05;93885.03;;;14.15;100.00
51829;BME280;37881;48.024;8.774;2023-07-20T04:25:32;93886.66;;;14.12;100.00
51829;BME280;37881;48.024;8.774;2023-07-20T04:28:06;93881.63;;;14.11;100.00
51829;BME280;37881;48.024;8.774;2023-07-20T04:30:37;93894.66;;;13.68;100.00
51829;BME280;37881;48.024;8.774;2023-07-20T04:33:05;93882.66;;;13.88;100.00
51829;BME280;37881;48.024;8.774;2023-07-20T04:35:49;93877.53;;;14.15;100.00
51829;BME280;37881;48.024;8.774;2023-07-20T04:38:16;93883.72;;;14.19;100.00
51829;BME280;37881;48.024;8.774;2023-07-20T04:40:45;93890.22;;;14.38;100.00
51829;BME280;37881;48.024;8.774;2023-07-20T04:43:13;93888.50;;;14.45;100.00
51829;BME280;37881;48.024;8.774;2023-07-20T04:45:40;93879.97;;;14.26;100.00
51829;BME280;37881;48.024;8.774;2023-07-20T04:48:09;93882.50;;;14.46;100.00
51829;BME280;37881;48.024;8.774;2023-07-20T04:50:44;93884.59;;;14.42;100.00
51829;BME280;37881;48.024;8.774;2023-07-20T04:53:14;93885.75;;;14.70;100.00
51829;BME280;37881;48.024;8.774;2023-07-20T04:55:46;93899.06;;;15.10;100.00
51829;BME280;37881;48.024;8.774;2023-07-20T04:58:13;93895.72;;;15.28;100.00
51829;BME280;37881;48.024;8.774;2023-07-20T05:00:40;93894.78;;;14.96;100.00
51829;BME280;37881;48.024;8.774;2023-07-20T05:03:07;93900.13;;;14.65;100.00
51829;BME280;37881;48.024;8.774;2023-07-20T05:05:34;93899.41;;;14.48;100.00
51829;BME280;37881;48.024;8.774;2023-07-20T05:08:01;93900.66;;;14.86;100.00
51829;BME280;37881;48.024;8.774;2023-07-20T05:10:27;93903.72;;;15.13;100.00
51829;BME280;37881;48.024;8.774;2023-07-20T05:12:54;93898.75;;;15.43;100.00
51829;BME280;37881;48.024;8.774;2023-07-20T05:15:21;93898.28;;;15.57;100.00
51829;BME280;37881;48.024;8.774;2023-07-20T05:17:48;93903.31;;;15.37;100.00
51829;BME280;37881;48.024;8.774;2023-07-20T05:20:15;93897.66;;;14.93;100.00
51829;BME280;37881;48.024;8.774;2023-07-20T05:22:42;93901.28;;;15.15;100.00
51829;BME280;37881;48.024;8.774;2023-07-20T05:25:10;93902.91;;;15.26;100.00
51829;BME280;37881;48.024;8.774;2023-07-20T05:27:39;93896.41;;;15.54;100.00
51829;BME280;37881;48.024;8.774;2023-07-20T05:30:06;93892.16;;;15.75;100.00
51829;BME280;37881;48.024;8.774;2023-07-20T05:32:33;93892.97;;;15.85;100.00
51829;BME280;37881;48.024;8.774;2023-07-20T05:35:00;93888.25;;;16.17;100.00
51829;BME280;37881;48.024;8.774;2023-07-20T05:37:27;93892.63;;;16.27;100.00
51829;BME280;37881;48.024;8.774;2023-07-20T05:39:54;93887.81;;;17.68;100.00
51829;BME280;37881;48.024;8.774;2023-07-20T05:42:21;93886.94;;;19.99;92.70
51829;BME280;37881;48.024;8.774;2023-07-20T05:44:48;93884.69;;;19.88;89.98
51829;BME280;37881;48.024;8.774;2023-07-20T05:47:16;93883.50;;;20.78;85.99
51829;BME280;37881;48.024;8.774;2023-07-20T05:49:43;93880.75;;;20.99;80.21
51829;BME280;37881;48.024;8.774;2023-07-20T05:52:09;93878.78;;;22.22;74.16
51829;BME280;37881;48.024;8.774;2023-07-20T05:54:36;93880.03;;;22.21;71.63
51829;BME280;37881;48.024;8.774;2023-07-20T05:57:04;93881.59;;;22.22;72.87
51829;BME280;37881;48.024;8.774;2023-07-20T05:59:30;93889.75;;;22.78;69.46
51829;BME280;37881;48.024;8.774;2023-07-20T06:01:58;93889.56;;;23.19;68.95
51829;BME280;37881;48.024;8.774;2023-07-20T06:04:25;93883.97;;;24.33;64.50
51829;BME280;37881;48.024;8.774;2023-07-20T06:06:51;93887.88;;;24.76;58.00
51829;BME280;37881;48.024;8.774;2023-07-20T06:09:18;93881.69;;;26.73;52.41
51829;BME280;37881;48.024;8.774;2023-07-20T06:11:45;93885.84;;;27.57;47.94
51829;BME280;37881;48.024;8.774;2023-07-20T06:14:12;93885.00;;;27.62;45.22
51829;BME280;37881;48.024;8.774;2023-07-20T06:16:39;93882.69;;;26.34;46.26
51829;BME280;37881;48.024;8.774;2023-07-20T06:19:06;93875.63;;;28.60;42.70
51829;BME280;37881;48.024;8.774;2023-07-20T06:21:33;93880.91;;;27.63;42.44
51829;BME280;37881;48.024;8.774;2023-07-20T06:23:59;93873.25;;;28.64;41.38
51829;BME280;37881;48.024;8.774;2023-07-20T06:26:26;93881.88;;;28.53;39.44
51829;BME280;37881;48.024;8.774;2023-07-20T06:28:53;93877.88;;;28.05;41.79
51829;BME280;37881;48.024;8.774;2023-07-20T06:31:20;93872.22;;;26.29;44.98
51829;BME280;37881;48.024;8.774;2023-07-20T06:33:47;93875.50;;;27.90;42.72
51829;BME280;37881;48.024;8.774;2023-07-20T06:36:17;93871.41;;;28.29;40.24
51829;BME280;37881;48.024;8.774;2023-07-20T06:38:44;93874.53;;;27.02;41.88
51829;BME280;37881;48.024;8.774;2023-07-20T06:41:31;93879.44;;;23.27;49.83
51829;BME280;37881;48.024;8.774;2023-07-20T06:44:00;93874.78;;;26.27;46.09
51829;BME280;37881;48.024;8.774;2023-07-20T06:46:27;93871.00;;;25.15;46.90
51829;BME280;37881;48.024;8.774;2023-07-20T06:48:54;93873.06;;;24.86;49.58
51829;BME280;37881;48.024;8.774;2023-07-20T06:51:24;93871.03;;;26.07;46.05
51829;BME280;37881;48.024;8.774;2023-07-20T06:53:51;93873.28;;;25.39;45.10
51829;BME280;37881;48.024;8.774;2023-07-20T06:56:18;93880.44;;;23.24;51.73
51829;BME280;37881;48.024;8.774;2023-07-20T06:58:49;93879.03;;;22.45;54.43
51829;BME280;37881;48.024;8.774;2023-07-20T07:01:16;93889.88;;;20.79;61.56
51829;BME280;37881;48.024;8.774;2023-07-20T07:03:43;93883.22;;;20.76;63.92
51829;BME280;37881;48.024;8.774;2023-07-20T07:06:10;93889.81;;;22.89;57.52
51829;BME280;37881;48.024;8.774;2023-07-20T07:08:37;93882.25;;;22.96;56.39
51829;BME280;37881;48.024;8.774;2023-07-20T07:11:04;93874.38;;;24.80;51.76
51829;BME280;37881;48.024;8.774;2023-07-20T07:13:32;93874.97;;;24.01;53.09
51829;BME280;37881;48.024;8.774;2023-07-20T07:15:58;93874.09;;;24.66;51.37
51829;BME280;37881;48.024;8.774;2023-07-20T07:18:25;93880.50;;;27.29;45.30
51829;BME280;37881;48.024;8.774;2023-07-20T07:20:53;93877.22;;;26.06;45.12
51829;BME280;37881;48.024;8.774;2023-07-20T07:23:20;93874.13;;;24.78;46.98
51829;BME280;37881;48.024;8.774;2023-07-20T07:25:47;93876.91;;;24.66;50.33
51829;BME280;37881;48.024;8.774;2023-07-20T07:28:14;93872.16;;;27.42;42.46
51829;BME280;37881;48.024;8.774;2023-07-20T07:30:41;93875.16;;;30.46;37.22
51829;BME280;37881;48.024;8.774;2023-07-20T07:33:08;93877.06;;;28.67;37.54
51829;BME280;37881;48.024;8.774;2023-07-20T07:35:36;93882.44;;;25.68;44.22
51829;BME280;37881;48.024;8.774;2023-07-20T07:38:03;93876.97;;;26.04;43.98
51829;BME280;37881;48.024;8.774;2023-07-20T07:40:51;93876.31;;;26.28;42.91
51829;BME280;37881;48.024;8.774;2023-07-20T07:43:18;93874.03;;;25.45;45.45
51829;BME280;37881;48.024;8.774;2023-07-20T07:45:45;93874.91;;;26.04;44.06
51829;BME280;37881;48.024;8.774;2023-07-20T07:48:12;93871.53;;;25.25;43.92
51829;BME280;37881;48.024;8.774;2023-07-20T07:50:39;93859.22;;;25.56;44.78
51829;BME280;37881;48.024;8.774;2023-07-20T07:53:09;93862.69;;;25.85;44.06
51829;BME280;37881;48.024;8.774;2023-07-20T07:55:36;93863.75;;;25.82;42.61
51829;BME280;37881;48.024;8.774;2023-07-20T07:58:03;93860.69;;;26.33;41.49
51829;BME280;37881;48.024;8.774;2023-07-20T08:00:29;93867.28;;;27.43;40.63
51829;BME280;37881;48.024;8.774;2023-07-20T08:02:56;93857.91;;;29.83;36.40
51829;BME280;37881;48.024;8.774;2023-07-20T08:05:23;93856.63;;;30.80;33.09
51829;BME280;37881;48.024;8.774;2023-07-20T08:07:49;93864.75;;;30.01;35.73
51829;BME280;37881;48.024;8.774;2023-07-20T08:10:16;93862.41;;;31.30;33.24
51829;BME280;37881;48.024;8.774;2023-07-20T08:12:43;93861.63;;;28.49;36.73
51829;BME280;37881;48.024;8.774;2023-07-20T08:15:13;93858.59;;;27.41;37.65
51829;BME280;37881;48.024;8.774;2023-07-20T08:17:41;93852.19;;;25.97;42.47
51829;BME280;37881;48.024;8.774;2023-07-20T08:20:12;93858.97;;;25.60;41.66
51829;BME280;37881;48.024;8.774;2023-07-20T08:22:39;93856.75;;;24.68;44.53
51829;BME280;37881;48.024;8.774;2023-07-20T08:25:06;93860.66;;;27.65;40.76
51829;BME280;37881;48.024;8.774;2023-07-20T08:27:34;93852.44;;;30.12;35.86
51829;BME280;37881;48.024;8.774;2023-07-20T08:30:01;93854.56;;;29.13;36.45
51829;BME280;37881;48.024;8.774;2023-07-20T08:32:28;93850.81;;;28.34;36.92
51829;BME280;37881;48.024;8.774;2023-07-20T08:34:54;93847.13;;;28.77;37.16
51829;BME280;37881;48.024;8.774;2023-07-20T08:37:21;93847.63;;;28.95;36.71
51829;BME280;37881;48.024;8.774;2023-07-20T08:39:48;93855.88;;;28.60;36.17
51829;BME280;37881;48.024;8.774;2023-07-20T08:42:15;93861.59;;;28.55;36.14
51829;BME280;37881;48.024;8.774;2023-07-20T08:44:43;93861.97;;;28.64;36.38
51829;BME280;37881;48.024;8.774;2023-07-20T08:47:13;93859.91;;;28.97;35.88
51829;BME280;37881;48.024;8.774;2023-07-20T08:49:40;93867.47;;;27.20;38.22
51829;BME280;37881;48.024;8.774;2023-07-20T08:52:07;93860.13;;;28.99;36.45
51829;BME280;37881;48.024;8.774;2023-07-20T08:54:34;93858.63;;;28.98;35.68
51829;BME280;37881;48.024;8.774;2023-07-20T08:57:04;93851.72;;;31.64;31.79
51829;BME280;37881;48.024;8.774;2023-07-20T08:59:32;93855.94;;;30.87;32.20
51829;BME280;37881;48.024;8.774;2023-07-20T09:01:59;93852.72;;;31.25;32.43
51829;BME280;37881;48.024;8.774;2023-07-20T09:04:27;93856.91;;;26.96;37.33
51829;BME280;37881;48.024;8.774;2023-07-20T09:06:53;93851.19;;;26.36;40.21
51829;BME280;37881;48.024;8.774;2023-07-20T09:09:21;93845.25;;;31.35;32.64
51829;BME280;37881;48.024;8.774;2023-07-20T09:11:51;93839.94;;;31.32;31.98
51829;BME280;37881;48.024;8.774;2023-07-20T09:14:18;93833.78;;;31.70;30.57
51829;BME280;37881;48.024;8.774;2023-07-20T09:16:55;93833.19;;;29.84;32.99
51829;BME280;37881;48.024;8.774;2023-07-20T09:19:22;93845.03;;;28.45;35.84
51829;BME280;37881;48.024;8.774;2023-07-20T09:21:50;93842.91;;;29.89;34.66
51829;BME280;37881;48.024;8.774;2023-07-20T09:24:18;93832.16;;;30.69;32.67
51829;BME280;37881;48.024;8.774;2023-07-20T09:26:47;93827.38;;;30.16;33.46
51829;BME280;37881;48.024;8.774;2023-07-20T09:29:18;93829.28;;;29.60;34.36
51829;BME280;37881;48.024;8.774;2023-07-20T09:32:17;93837.16;;;25.77;40.93
51829;BME280;37881;48.024;8.774;2023-07-20T09:34:49;93832.34;;;27.27;40.50
51829;BME280;37881;48.024;8.774;2023-07-20T09:37:21;93827.69;;;26.75;39.79
51829;BME280;37881;48.024;8.774;2023-07-20T09:39:51;93832.47;;;24.31;45.24
51829;BME280;37881;48.024;8.774;2023-07-20T09:42:22;93826.00;;;23.31;49.76
51829;BME280;37881;48.024;8.774;2023-07-20T09:44:52;93825.25;;;25.48;45.40
51829;BME280;37881;48.024;8.774;2023-07-20T09:47:23;93826.03;;;25.43;44.13
51829;BME280;37881;48.024;8.774;2023-07-20T09:50:02;93820.25;;;26.36;42.03
51829;BME280;37881;48.024;8.774;2023-07-20T09:52:33;93822.38;;;26.96;41.23
51829;BME280;37881;48.024;8.774;2023-07-20T09:55:03;93812.72;;;26.49;40.77
51829;BME280;37881;48.024;8.774;2023-07-20T09:57:32;93819.78;;;27.28;39.40
51829;BME280;37881;48.024;8.774;2023-07-20T09:59:59;93821.88;;;26.61;39.68
51829;BME280;37881;48.024;8.774;2023-07-20T10:02:33;93820.72;;;28.23;36.81
51829;BME280;37881;48.024;8.774;2023-07-20T10:05:02;93806.88;;;29.76;34.45
51829;BME280;37881;48.024;8.774;2023-07-20T10:07:36;93808.19;;;28.38;35.81
51829;BME280;37881;48.024;8.774;2023-07-20T10:10:06;93804.19;;;28.46;35.44
51829;BME280;37881;48.024;8.774;2023-07-20T10:12:34;93806.97;;;29.30;34.41
51829;BME280;37881;48.024;8.774;2023-07-20T10:15:15;93803.03;;;28.87;34.93
51829;BME280;37881;48.024;8.774;2023-07-20T10:17:57;93792.84;;;30.86;31.90
51829;BME280;37881;48.024;8.774;2023-07-20T10:20:27;93785.03;;;30.79;31.47
51829;BME280;37881;48.024;8.774;2023-07-20T10:22:56;93788.44;;;30.78;31.00
51829;BME280;37881;48.024;8.774;2023-07-20T10:25:24;93772.28;;;31.64;29.37
51829;BME280;37881;48.024;8.774;2023-07-20T10:27:51;93777.41;;;29.84;30.90
51829;BME280;37881;48.024;8.774;2023-07-20T10:30:18;93779.22;;;29.82;31.40
51829;BME280;37881;48.024;8.774;2023-07-20T10:32:47;93777.63;;;31.18;29.83
51829;BME280;37881;48.024;8.774;2023-07-20T10:35:16;93765.16;;;33.13;28.30
51829;BME280;37881;48.024;8.774;2023-07-20T10:37:53;93766.00;;;34.41;26.26
51829;BME280;37881;48.024;8.774;2023-07-20T10:40:28;93760.69;;;33.89;26.49
51829;BME280;37881;48.024;8.774;2023-07-20T10:43:04;93759.25;;;33.34;27.00
51829;BME280;37881;48.024;8.774;2023-07-20T10:48:05;93758.09;;;31.64;28.88
51829;BME280;37881;48.024;8.774;2023-07-20T10:50:33;93762.25;;;30.30;29.89
51829;BME280;37881;48.024;8.774;2023-07-20T10:53:29;93767.06;;;29.74;31.27
51829;BME280;37881;48.024;8.774;2023-07-20T10:56:27;93754.88;;;29.65;30.87
51829;BME280;37881;48.024;8.774;2023-07-20T10:58:59;93764.78;;;29.59;31.51
51829;BME280;37881;48.024;8.774;2023-07-20T11:01:30;93751.41;;;29.33;32.30
51829;BME280;37881;48.024;8.774;2023-07-20T11:03:59;93745.44;;;29.23;32.26
51829;BME280;37881;48.024;8.774;2023-07-20T11:06:30;93754.28;;;28.74;33.49
51829;BME280;37881;48.024;8.774;2023-07-20T11:11:36;93754.66;;;28.64;33.37
51829;BME280;37881;48.024;8.774;2023-07-20T11:14:05;93751.56;;;28.95;32.55
51829;BME280;37881;48.024;8.774;2023-07-20T11:16:39;93739.06;;;28.77;32.18
51829;BME280;37881;48.024;8.774;2023-07-20T11:19:13;93742.09;;;26.23;35.68
51829;BME280;37881;48.024;8.774;2023-07-20T11:21:54;93739.00;;;27.12;35.19
51829;BME280;37881;48.024;8.774;2023-07-20T11:24:28;93739.47;;;26.30;35.94
51829;BME280;37881;48.024;8.774;2023-07-20T11:26:55;93740.34;;;27.92;35.19
51829;BME280;37881;48.024;8.774;2023-07-20T11:29:23;93730.19;;;27.83;35.72
51829;BME280;37881;48.024;8.774;2023-07-20T11:32:00;93740.13;;;27.27;35.15
51829;BME280;37881;48.024;8.774;2023-07-20T11:34:29;93737.19;;;26.29;36.83
51829;BME280;37881;48.024;8.774;2023-07-20T11:36:56;93730.19;;;27.64;35.20
51829;BME280;37881;48.024;8.774;2023-07-20T11:39:26;93722.66;;;28.11;33.31
51829;BME280;37881;48.024;8.774;2023-07-20T11:41:55;93720.91;;;28.40;33.17
51829;BME280;37881;48.024;8.774;2023-07-20T11:44:24;93715.34;;;28.02;33.66
51829;BME280;37881;48.024;8.774;2023-07-20T11:47:04;93715.09;;;27.43;34.45
51829;BME280;37881;48.024;8.774;2023-07-20T11:49:40;93712.13;;;28.11;34.42
51829;BME280;37881;48.024;8.774;2023-07-20T11:52:09;93705.63;;;28.16;33.63
51829;BME280;37881;48.024;8.774;2023-07-20T11:54:40;93710.59;;;27.72;34.36
51829;BME280;37881;48.024;8.774;2023-07-20T11:57:18;93702.53;;;28.33;33.92
51829;BME280;37881;48.024;8.774;2023-07-20T11:59:56;93712.59;;;28.15;32.92
51829;BME280;37881;48.024;8.774;2023-07-20T12:02:27;93701.88;;;28.59;33.51
51829;BME280;37881;48.024;8.774;2023-07-20T12:04:55;93698.94;;;28.19;33.09
51829;BME280;37881;48.024;8.774;2023-07-20T12:07:27;93694.50;;;28.24;33.51
51829;BME280;37881;48.024;8.774;2023-07-20T12:12:37;93681.72;;;27.66;34.55
51829;BME280;37881;48.024;8.774;2023-07-20T12:17:49;93697.25;;;25.59;37.26
51829;BME280;37881;48.024;8.774;2023-07-20T12:22:56;93683.03;;;24.76;40.90
51829;BME280;37881;48.024;8.774;2023-07-20T12:25:32;93683.69;;;25.63;38.07
51829;BME280;37881;48.024;8.774;2023-07-20T12:28:05;93677.59;;;24.95;40.27
51829;BME280;37881;48.024;8.774;2023-07-20T12:30:32;93675.16;;;24.06;41.56
51829;BME280;37881;48.024;8.774;2023-07-20T12:32:59;93675.16;;;24.06;41.90
51829;BME280;37881;48.024;8.774;2023-07-20T12:35:26;93679.81;;;25.13;39.56
51829;BME280;37881;48.024;8.774;2023-07-20T12:37:53;93669.13;;;25.11;39.99
51829;BME280;37881;48.024;8.774;2023-07-20T12:40:20;93675.56;;;26.25;37.48
51829;BME280;37881;48.024;8.774;2023-07-20T12:42:47;93673.38;;;24.20;41.14
51829;BME280;37881;48.024;8.774;2023-07-20T12:45:15;93665.19;;;24.73;41.25
51829;BME280;37881;48.024;8.774;2023-07-20T12:47:42;93671.06;;;23.73;43.02
51829;BME280;37881;48.024;8.774;2023-07-20T12:50:11;93668.78;;;24.40;42.97
51829;BME280;37881;48.024;8.774;2023-07-20T12:52:39;93660.44;;;25.62;40.99
51829;BME280;37881;48.024;8.774;2023-07-20T12:55:08;93660.19;;;25.60;39.47
51829;BME280;37881;48.024;8.774;2023-07-20T12:57:36;93653.91;;;27.19;37.90
51829;BME280;37881;48.024;8.774;2023-07-20T13:00:04;93657.91;;;27.67;36.25
51829;BME280;37881;48.024;8.774;2023-07-20T13:02:32;93649.53;;;26.99;36.70
51829;BME280;37881;48.024;8.774;2023-07-20T13:04:59;93652.25;;;28.18;35.80
51829;BME280;37881;48.024;8.774;2023-07-20T13:07:34;93644.78;;;27.50;35.78
51829;BME280;37881;48.024;8.774;2023-07-20T13:10:05;93636.31;;;27.88;34.69
51829;BME280;37881;48.024;8.774;2023-07-20T13:12:33;93640.19;;;27.09;36.02
51829;BME280;37881;48.024;8.774;2023-07-20T13:15:06;93638.91;;;27.48;35.93
51829;BME280;37881;48.024;8.774;2023-07-20T13:17:34;93629.72;;;27.48;35.71
51829;BME280;37881;48.024;8.774;2023-07-20T13:20:02;93635.63;;;26.33;37.45
51829;BME280;37881;48.024;8.774;2023-07-20T13:22:31;93631.22;;;27.30;35.26
51829;BME280;37881;48.024;8.774;2023-07-20T13:24:58;93628.97;;;26.85;35.65
51829;BME280;37881;48.024;8.774;2023-07-20T13:27:24;93621.66;;;27.39;35.82
51829;BME280;37881;48.024;8.774;2023-07-20T13:29:54;93624.69;;;27.41;35.88